Decoded Metar for GCGM (LA GOMERA in SPAIN) (IATA:N/A) | Meteo·Mobile Aviation Weather
aviador You're here:

GCGM Decoded Metar

LA GOMERA in SPAIN
Report Time2019-04-23 07:30:00
UTC Time2019-04-23 07:55:13
Flight Rules vfr VFR
WindVRB at 01 kt
Visibility9999 m
Phenomena:N/A
Clouds:Few 030 Hf
Expected CloudBase > 2,000 ft AGL from Temp-Dew spread
CeilingNone
Temp18°C
Dew Point13°C (73% RH)
QNH1014 hPa
Raw Report
METAR GCGM 230730Z VRB01KT 9999 FEW030 18/13 Q1014 RMK
R09/00000KT ARP/VRB01KT=

Extra information for GCGM:More info

Metar Taf Metar & Taf Last 4 Metars F.Rules Stats Wind Profile Meteogram Temp Stats Airport Information Weather charts Add Link Nearby VenuesMetar ALERT Operation Metar Decoded Social comments